SWR103Q EDDL-LSZH
Flight info
| Callsign | SWR103Q |
|---|---|
| Flight time | N/A |
| Altitude | 31000 |
| Route | DODEN7Z DODEN Y852 TUSUK DCT ULNOK L607 SUNEG T721 RILAX |
| Aircraft | A359/H-SBDE2E3FGHIJ3J4J5LM1ORWXY/LB1D1 |
Departure
| Time | 2026-02-19 21:17 |
|---|---|
| Airport | Düsseldorf Airport (EDDL) |
Arrival
| Time | N/A |
|---|---|
| Airport | Zürich Airport (LSZH) |
| Time | Latitude | Longitude | Altitude | Speed | Heading |
|---|---|---|---|---|---|
| 2026-02-19 20:44 | 51.28262 | 6.76697 | 133 ft | 0 kts | 201° |
| 2026-02-19 21:02 | 51.28264 | 6.76698 | 106 ft | 1 kts | 201° |
| 2026-02-19 21:03 | 51.28279 | 6.76708 | 128 ft | 3 kts | 201° |
| 2026-02-19 21:03 | 51.28298 | 6.76719 | 130 ft | 3 kts | 202° |
| 2026-02-19 21:03 | 51.28316 | 6.76732 | 133 ft | 3 kts | 212° |
| 2026-02-19 21:03 | 51.28332 | 6.76750 | 132 ft | 3 kts | 225° |
| 2026-02-19 21:04 | 51.28344 | 6.76772 | 133 ft | 3 kts | 243° |
| 2026-02-19 21:04 | 51.28350 | 6.76798 | 133 ft | 3 kts | 264° |
| 2026-02-19 21:04 | 51.28350 | 6.76827 | 131 ft | 3 kts | 277° |
| 2026-02-19 21:04 | 51.28348 | 6.76859 | 134 ft | 3 kts | 271° |
| 2026-02-19 21:05 | 51.28349 | 6.76890 | 135 ft | 3 kts | 263° |
| 2026-02-19 21:05 | 51.28352 | 6.76921 | 135 ft | 3 kts | 255° |
| 2026-02-19 21:05 | 51.28357 | 6.76951 | 135 ft | 3 kts | 246° |
| 2026-02-19 21:05 | 51.28366 | 6.76980 | 131 ft | 3 kts | 237° |
| 2026-02-19 21:06 | 51.28378 | 6.77006 | 132 ft | 3 kts | 230° |
| 2026-02-19 21:06 | 51.28391 | 6.77031 | 135 ft | 3 kts | 230° |
| 2026-02-19 21:06 | 51.28397 | 6.77043 | 135 ft | 0 kts | 232° |
| 2026-02-19 21:11 | 51.28386 | 6.77020 | 130 ft | 5 kts | 232° |
| 2026-02-19 21:11 | 51.28367 | 6.76980 | 135 ft | 8 kts | 232° |
| 2026-02-19 21:11 | 51.28336 | 6.76916 | 131 ft | 6 kts | 234° |
| 2026-02-19 21:11 | 51.28334 | 6.76902 | 133 ft | 1 kts | 264° |
| 2026-02-19 21:12 | 51.28339 | 6.76843 | 131 ft | 5 kts | 290° |
| 2026-02-19 21:12 | 51.28364 | 6.76749 | 125 ft | 14 kts | 305° |
| 2026-02-19 21:12 | 51.28400 | 6.76686 | 125 ft | 10 kts | 304° |
| 2026-02-19 21:12 | 51.28391 | 6.76576 | 126 ft | 12 kts | 240° |
| 2026-02-19 21:13 | 51.28335 | 6.76453 | 123 ft | 15 kts | 231° |
| 2026-02-19 21:13 | 51.28264 | 6.76306 | 125 ft | 18 kts | 232° |
| 2026-02-19 21:13 | 51.28195 | 6.76166 | 131 ft | 15 kts | 231° |
| 2026-02-19 21:13 | 51.28137 | 6.76039 | 136 ft | 14 kts | 233° |
| 2026-02-19 21:14 | 51.28071 | 6.75899 | 136 ft | 15 kts | 232° |
| 2026-02-19 21:14 | 51.28005 | 6.75759 | 136 ft | 16 kts | 232° |
| 2026-02-19 21:14 | 51.27930 | 6.75606 | 135 ft | 19 kts | 232° |
| 2026-02-19 21:14 | 51.27866 | 6.75475 | 130 ft | 12 kts | 231° |
| 2026-02-19 21:15 | 51.27846 | 6.75381 | 127 ft | 5 kts | 291° |
| 2026-02-19 21:15 | 51.27881 | 6.75323 | 127 ft | 10 kts | 324° |
| 2026-02-19 21:15 | 51.27952 | 6.75268 | 126 ft | 9 kts | 347° |
| 2026-02-19 21:15 | 51.28007 | 6.75305 | 126 ft | 10 kts | 47° |
| 2026-02-19 21:16 | 51.28022 | 6.75332 | 126 ft | 0 kts | 50° |
| 2026-02-19 21:16 | 51.28023 | 6.75335 | 126 ft | 3 kts | 50° |
| 2026-02-19 21:16 | 51.28051 | 6.75388 | 127 ft | 15 kts | 51° |
| 2026-02-19 21:16 | 51.28297 | 6.75906 | 136 ft | 110 kts | 52° |
| 2026-02-19 21:17 | 51.28925 | 6.77238 | 418 ft | 176 kts | 53° |
| 2026-02-19 21:17 | 51.29711 | 6.78901 | 1367 ft | 206 kts | 56° |
| 2026-02-19 21:17 | 51.30638 | 6.80824 | 1930 ft | 230 kts | 57° |
| 2026-02-19 21:17 | 51.31649 | 6.82938 | 2606 ft | 243 kts | 58° |
| 2026-02-19 21:18 | 51.32694 | 6.85135 | 3358 ft | 252 kts | 57° |
| 2026-02-19 21:18 | 51.33760 | 6.87386 | 4160 ft | 257 kts | 56° |
| 2026-02-19 21:18 | 51.34752 | 6.89769 | 5024 ft | 258 kts | 65° |
| 2026-02-19 21:18 | 51.35251 | 6.92464 | 5854 ft | 255 kts | 88° |
| 2026-02-19 21:19 | 51.35135 | 6.95263 | 6708 ft | 254 kts | 99° |
| 2026-02-19 21:19 | 51.34845 | 6.98085 | 7420 ft | 261 kts | 101° |
| 2026-02-19 21:19 | 51.34533 | 7.00976 | 8146 ft | 267 kts | 100° |
| 2026-02-19 21:19 | 51.34221 | 7.03925 | 8906 ft | 272 kts | 99° |
| 2026-02-19 21:20 | 51.33909 | 7.06941 | 9740 ft | 276 kts | 99° |
| 2026-02-19 21:20 | 51.33596 | 7.09995 | 10327 ft | 287 kts | 99° |
| 2026-02-19 21:20 | 51.33263 | 7.13264 | 10656 ft | 306 kts | 99° |
| 2026-02-19 21:20 | 51.32752 | 7.16650 | 11108 ft | 318 kts | 110° |
| 2026-02-19 21:21 | 51.31592 | 7.19667 | 11787 ft | 323 kts | 130° |
| 2026-02-19 21:21 | 51.30020 | 7.22253 | 12500 ft | 327 kts | 135° |
| 2026-02-19 21:21 | 51.28376 | 7.24805 | 13183 ft | 331 kts | 135° |
| 2026-02-19 21:21 | 51.26733 | 7.27366 | 13854 ft | 335 kts | 134° |
| 2026-02-19 21:22 | 51.25064 | 7.29979 | 14464 ft | 339 kts | 134° |
| 2026-02-19 21:22 | 51.23383 | 7.32619 | 15073 ft | 343 kts | 134° |
| 2026-02-19 21:22 | 51.21664 | 7.35323 | 15673 ft | 347 kts | 135° |
| 2026-02-19 21:22 | 51.19933 | 7.38044 | 16299 ft | 351 kts | 135° |
| 2026-02-19 21:23 | 51.18183 | 7.40792 | 16912 ft | 355 kts | 135° |
| 2026-02-19 21:23 | 51.16422 | 7.43557 | 17509 ft | 359 kts | 135° |
| 2026-02-19 21:23 | 51.14632 | 7.46363 | 18086 ft | 363 kts | 135° |
| 2026-02-19 21:23 | 51.12803 | 7.49165 | 18629 ft | 366 kts | 135° |
| 2026-02-19 21:24 | 51.10976 | 7.51941 | 19211 ft | 368 kts | 135° |
| 2026-02-19 21:24 | 51.09125 | 7.54757 | 19791 ft | 369 kts | 135° |
| 2026-02-19 21:24 | 51.07266 | 7.57586 | 20358 ft | 371 kts | 135° |
| 2026-02-19 21:24 | 51.05390 | 7.60437 | 20935 ft | 373 kts | 135° |
| 2026-02-19 21:25 | 51.03511 | 7.63285 | 21495 ft | 375 kts | 135° |
| 2026-02-19 21:25 | 51.01615 | 7.66152 | 22034 ft | 378 kts | 135° |
| 2026-02-19 21:25 | 50.99709 | 7.69037 | 22575 ft | 380 kts | 135° |
| 2026-02-19 21:25 | 50.97787 | 7.71936 | 23083 ft | 383 kts | 135° |
| 2026-02-19 21:26 | 50.95718 | 7.74581 | 23569 ft | 388 kts | 144° |
| 2026-02-19 21:26 | 50.93442 | 7.76903 | 24021 ft | 390 kts | 146° |
| 2026-02-19 21:26 | 50.91144 | 7.79159 | 24479 ft | 393 kts | 147° |
| 2026-02-19 21:26 | 50.88802 | 7.81455 | 24958 ft | 395 kts | 147° |
| 2026-02-19 21:27 | 50.86460 | 7.83752 | 25451 ft | 397 kts | 147° |
| 2026-02-19 21:27 | 50.84101 | 7.86066 | 25970 ft | 400 kts | 147° |
| 2026-02-19 21:27 | 50.81738 | 7.88384 | 26500 ft | 402 kts | 147° |
| 2026-02-19 21:27 | 50.79347 | 7.90719 | 27054 ft | 404 kts | 147° |
| 2026-02-19 21:28 | 50.76940 | 7.93060 | 27616 ft | 407 kts | 147° |
| 2026-02-19 21:28 | 50.74554 | 7.95383 | 28177 ft | 410 kts | 147° |
| 2026-02-19 21:28 | 50.72121 | 7.97755 | 28767 ft | 413 kts | 147° |
| 2026-02-19 21:28 | 50.69659 | 8.00150 | 29313 ft | 416 kts | 147° |
| 2026-02-19 21:29 | 50.67185 | 8.02559 | 29883 ft | 420 kts | 147° |
| 2026-02-19 21:29 | 50.64705 | 8.04971 | 30325 ft | 424 kts | 147° |
| 2026-02-19 21:29 | 50.62114 | 8.07285 | 30690 ft | 431 kts | 153° |
| 2026-02-19 21:29 | 50.59315 | 8.09014 | 30860 ft | 432 kts | 162° |
| 2026-02-19 21:30 | 50.56413 | 8.09929 | 30913 ft | 416 kts | 171° |
| 2026-02-19 21:30 | 50.53772 | 8.10403 | 30916 ft | 403 kts | 173° |
| 2026-02-19 21:30 | 50.51049 | 8.10776 | 29646 ft | 391 kts | 176° |
| 2026-02-19 21:30 | 50.48331 | 8.11121 | 29894 ft | 399 kts | 185° |
| 2026-02-19 21:31 | 50.45521 | 8.11433 | 30145 ft | 408 kts | 185° |
| 2026-02-19 21:31 | 50.42694 | 8.11753 | 30399 ft | 408 kts | 185° |
| 2026-02-19 21:31 | 50.39875 | 8.12095 | 30642 ft | 406 kts | 185° |
| 2026-02-19 21:31 | 50.37072 | 8.12429 | 30803 ft | 401 kts | 185° |
| 2026-02-19 21:32 | 50.28947 | 8.13349 | 30919 ft | 384 kts | 180° |
| 2026-02-19 21:33 | 50.24913 | 8.13843 | 30922 ft | 383 kts | 178° |
| 2026-02-19 21:33 | 50.19654 | 8.14509 | 30923 ft | 382 kts | 175° |
| 2026-02-19 21:34 | 50.14604 | 8.15590 | 30925 ft | 381 kts | 166° |
| 2026-02-19 21:34 | 50.09739 | 8.18794 | 30931 ft | 381 kts | 152° |
| 2026-02-19 21:35 | 50.05798 | 8.22362 | 30935 ft | 381 kts | 149° |
| 2026-02-19 21:35 | 50.01293 | 8.26607 | 30934 ft | 381 kts | 149° |
| 2026-02-19 21:36 | 49.96747 | 8.30863 | 30933 ft | 381 kts | 149° |
| 2026-02-19 21:36 | 49.92188 | 8.35075 | 30935 ft | 381 kts | 150° |
| 2026-02-19 21:37 | 49.87624 | 8.39266 | 30934 ft | 381 kts | 150° |
| 2026-02-19 21:37 | 49.83337 | 8.44094 | 30933 ft | 382 kts | 139° |
| 2026-02-19 21:38 | 49.79445 | 8.49613 | 30927 ft | 382 kts | 137° |
| 2026-02-19 21:38 | 49.75584 | 8.55264 | 30924 ft | 382 kts | 137° |
| 2026-02-19 21:39 | 49.71345 | 8.60130 | 30927 ft | 381 kts | 153° |
| 2026-02-19 21:39 | 49.66310 | 8.62608 | 30919 ft | 381 kts | 167° |
| 2026-02-19 21:40 | 49.61115 | 8.64107 | 30917 ft | 382 kts | 169° |